sensor_id;sensor_type;location;lat;lon;timestamp;temperature;humidity
18876;DHT22;9570;50.854;13.778;2023-05-10T00:01:16;12.10;99.90
18876;DHT22;9570;50.854;13.778;2023-05-10T00:03:41;12.10;99.90
18876;DHT22;9570;50.854;13.778;2023-05-10T00:06:07;12.10;99.90
18876;DHT22;9570;50.854;13.778;2023-05-10T00:08:32;12.10;99.90
18876;DHT22;9570;50.854;13.778;2023-05-10T00:10:57;12.10;99.90
18876;DHT22;9570;50.854;13.778;2023-05-10T00:13:23;12.10;99.90
18876;DHT22;9570;50.854;13.778;2023-05-10T00:15:48;12.10;99.90
18876;DHT22;9570;50.854;13.778;2023-05-10T00:18:14;12.10;99.90
18876;DHT22;9570;50.854;13.778;2023-05-10T00:20:39;12.00;99.90
18876;DHT22;9570;50.854;13.778;2023-05-10T00:23:05;12.00;99.90
18876;DHT22;9570;50.854;13.778;2023-05-10T00:25:31;12.00;99.90
18876;DHT22;9570;50.854;13.778;2023-05-10T00:27:57;11.90;99.90
18876;DHT22;9570;50.854;13.778;2023-05-10T00:30:22;11.90;99.90
18876;DHT22;9570;50.854;13.778;2023-05-10T00:32:48;11.90;99.90
18876;DHT22;9570;50.854;13.778;2023-05-10T00:35:15;11.90;99.90
18876;DHT22;9570;50.854;13.778;2023-05-10T00:37:41;11.90;99.90
18876;DHT22;9570;50.854;13.778;2023-05-10T00:40:07;11.90;99.90
18876;DHT22;9570;50.854;13.778;2023-05-10T00:42:32;11.90;99.90
18876;DHT22;9570;50.854;13.778;2023-05-10T00:44:58;11.80;99.90
18876;DHT22;9570;50.854;13.778;2023-05-10T00:47:23;11.80;99.90
18876;DHT22;9570;50.854;13.778;2023-05-10T00:49:49;11.80;99.90
18876;DHT22;9570;50.854;13.778;2023-05-10T00:52:15;11.80;99.90
18876;DHT22;9570;50.854;13.778;2023-05-10T00:54:40;11.80;99.90
18876;DHT22;9570;50.854;13.778;2023-05-10T00:57:06;11.80;99.90
18876;DHT22;9570;50.854;13.778;2023-05-10T00:59:31;11.70;99.90
18876;DHT22;9570;50.854;13.778;2023-05-10T01:01:58;11.70;99.90
18876;DHT22;9570;50.854;13.778;2023-05-10T01:04:23;11.70;99.90
18876;DHT22;9570;50.854;13.778;2023-05-10T01:06:51;11.60;99.90
18876;DHT22;9570;50.854;13.778;2023-05-10T01:09:18;11.60;99.90
18876;DHT22;9570;50.854;13.778;2023-05-10T01:11:43;11.60;99.90
18876;DHT22;9570;50.854;13.778;2023-05-10T01:14:12;11.70;99.90
18876;DHT22;9570;50.854;13.778;2023-05-10T01:16:40;11.60;99.90
18876;DHT22;9570;50.854;13.778;2023-05-10T01:19:25;11.60;99.90
18876;DHT22;9570;50.854;13.778;2023-05-10T01:28:04;11.50;99.90
18876;DHT22;9570;50.854;13.778;2023-05-10T01:31:03;11.50;99.90
18876;DHT22;9570;50.854;13.778;2023-05-10T01:33:51;11.50;99.90
18876;DHT22;9570;50.854;13.778;2023-05-10T01:36:35;11.50;99.90
18876;DHT22;9570;50.854;13.778;2023-05-10T01:39:42;11.50;99.90
18876;DHT22;9570;50.854;13.778;2023-05-10T01:42:13;11.50;99.90
18876;DHT22;9570;50.854;13.778;2023-05-10T01:44:59;11.40;99.90
18876;DHT22;9570;50.854;13.778;2023-05-10T01:49:55;11.40;99.90
18876;DHT22;9570;50.854;13.778;2023-05-10T01:52:28;11.30;99.90
18876;DHT22;9570;50.854;13.778;2023-05-10T01:55:04;11.30;99.90
18876;DHT22;9570;50.854;13.778;2023-05-10T01:57:34;11.40;99.90
18876;DHT22;9570;50.854;13.778;2023-05-10T02:00:02;11.30;99.90
18876;DHT22;9570;50.854;13.778;2023-05-10T02:02:30;11.30;99.90
18876;DHT22;9570;50.854;13.778;2023-05-10T02:04:57;11.30;99.90
18876;DHT22;9570;50.854;13.778;2023-05-10T02:07:23;11.30;99.90
18876;DHT22;9570;50.854;13.778;2023-05-10T02:09:49;11.20;99.90
18876;DHT22;9570;50.854;13.778;2023-05-10T02:12:16;11.20;99.90
18876;DHT22;9570;50.854;13.778;2023-05-10T02:14:42;11.20;99.90
18876;DHT22;9570;50.854;13.778;2023-05-10T02:17:09;11.20;99.90
18876;DHT22;9570;50.854;13.778;2023-05-10T02:19:37;11.20;99.90
18876;DHT22;9570;50.854;13.778;2023-05-10T02:22:04;11.20;99.90
18876;DHT22;9570;50.854;13.778;2023-05-10T02:24:30;11.20;99.90
18876;DHT22;9570;50.854;13.778;2023-05-10T02:26:57;11.10;99.90
18876;DHT22;9570;50.854;13.778;2023-05-10T02:29:24;11.10;99.90
18876;DHT22;9570;50.854;13.778;2023-05-10T02:31:52;11.10;99.90
18876;DHT22;9570;50.854;13.778;2023-05-10T02:34:21;11.20;99.90
18876;DHT22;9570;50.854;13.778;2023-05-10T02:36:47;11.10;99.90
18876;DHT22;9570;50.854;13.778;2023-05-10T02:39:14;11.10;99.90
18876;DHT22;9570;50.854;13.778;2023-05-10T02:41:42;11.10;99.90
18876;DHT22;9570;50.854;13.778;2023-05-10T02:44:08;11.10;99.90
18876;DHT22;9570;50.854;13.778;2023-05-10T02:46:35;11.10;99.90
18876;DHT22;9570;50.854;13.778;2023-05-10T02:49:02;11.10;99.90
18876;DHT22;9570;50.854;13.778;2023-05-10T02:51:31;11.10;99.90
18876;DHT22;9570;50.854;13.778;2023-05-10T02:53:57;11.10;99.90
18876;DHT22;9570;50.854;13.778;2023-05-10T02:56:33;11.00;99.90
18876;DHT22;9570;50.854;13.778;2023-05-10T02:58:59;11.00;99.90
18876;DHT22;9570;50.854;13.778;2023-05-10T03:01:25;11.00;99.90
18876;DHT22;9570;50.854;13.778;2023-05-10T03:03:50;11.00;99.90
18876;DHT22;9570;50.854;13.778;2023-05-10T03:06:16;11.00;99.90
18876;DHT22;9570;50.854;13.778;2023-05-10T03:08:42;11.00;99.90
18876;DHT22;9570;50.854;13.778;2023-05-10T03:11:28;10.90;99.90
18876;DHT22;9570;50.854;13.778;2023-05-10T03:17:22;10.90;99.90
18876;DHT22;9570;50.854;13.778;2023-05-10T03:19:54;10.90;99.90
18876;DHT22;9570;50.854;13.778;2023-05-10T03:22:29;10.90;99.90
18876;DHT22;9570;50.854;13.778;2023-05-10T03:24:56;10.80;99.90
18876;DHT22;9570;50.854;13.778;2023-05-10T03:27:23;10.90;99.90
18876;DHT22;9570;50.854;13.778;2023-05-10T03:29:51;10.90;99.90
18876;DHT22;9570;50.854;13.778;2023-05-10T03:32:17;10.90;99.90
18876;DHT22;9570;50.854;13.778;2023-05-10T03:34:43;10.90;99.90
18876;DHT22;9570;50.854;13.778;2023-05-10T03:37:09;10.90;99.90
18876;DHT22;9570;50.854;13.778;2023-05-10T03:39:35;10.90;99.90
18876;DHT22;9570;50.854;13.778;2023-05-10T03:42:01;10.90;99.90
18876;DHT22;9570;50.854;13.778;2023-05-10T03:44:26;10.90;99.90
18876;DHT22;9570;50.854;13.778;2023-05-10T03:46:52;10.90;99.90
18876;DHT22;9570;50.854;13.778;2023-05-10T03:49:18;10.80;99.90
18876;DHT22;9570;50.854;13.778;2023-05-10T03:51:43;10.90;99.90
18876;DHT22;9570;50.854;13.778;2023-05-10T03:54:09;10.90;99.90
18876;DHT22;9570;50.854;13.778;2023-05-10T03:56:34;10.90;99.90
18876;DHT22;9570;50.854;13.778;2023-05-10T03:58:59;10.90;99.90
18876;DHT22;9570;50.854;13.778;2023-05-10T04:01:25;10.90;99.90
18876;DHT22;9570;50.854;13.778;2023-05-10T04:03:51;10.90;99.90
18876;DHT22;9570;50.854;13.778;2023-05-10T04:06:16;10.90;99.90
18876;DHT22;9570;50.854;13.778;2023-05-10T04:08:42;10.90;99.90
18876;DHT22;9570;50.854;13.778;2023-05-10T04:11:08;10.90;99.90
18876;DHT22;9570;50.854;13.778;2023-05-10T04:13:34;10.90;99.90
18876;DHT22;9570;50.854;13.778;2023-05-10T04:16:00;10.90;99.90
18876;DHT22;9570;50.854;13.778;2023-05-10T04:18:25;10.90;99.90
18876;DHT22;9570;50.854;13.778;2023-05-10T04:20:51;10.90;99.90
18876;DHT22;9570;50.854;13.778;2023-05-10T04:23:16;10.90;99.90
18876;DHT22;9570;50.854;13.778;2023-05-10T04:25:42;10.90;99.90
18876;DHT22;9570;50.854;13.778;2023-05-10T04:28:08;10.90;99.90
18876;DHT22;9570;50.854;13.778;2023-05-10T04:30:36;11.00;99.90
18876;DHT22;9570;50.854;13.778;2023-05-10T04:33:02;10.90;99.90
18876;DHT22;9570;50.854;13.778;2023-05-10T04:35:28;11.00;99.90
18876;DHT22;9570;50.854;13.778;2023-05-10T04:37:53;11.00;99.90
18876;DHT22;9570;50.854;13.778;2023-05-10T04:40:19;11.00;99.90
18876;DHT22;9570;50.854;13.778;2023-05-10T04:42:45;11.00;99.90
18876;DHT22;9570;50.854;13.778;2023-05-10T04:45:11;11.00;99.90
18876;DHT22;9570;50.854;13.778;2023-05-10T04:47:36;11.10;99.90
18876;DHT22;9570;50.854;13.778;2023-05-10T04:50:05;11.10;99.90
18876;DHT22;9570;50.854;13.778;2023-05-10T04:52:31;11.10;99.90
18876;DHT22;9570;50.854;13.778;2023-05-10T04:54:57;11.10;99.90
18876;DHT22;9570;50.854;13.778;2023-05-10T04:57:22;11.20;99.90
18876;DHT22;9570;50.854;13.778;2023-05-10T04:59:48;11.10;99.90
18876;DHT22;9570;50.854;13.778;2023-05-10T05:02:13;11.10;99.90
18876;DHT22;9570;50.854;13.778;2023-05-10T05:04:38;11.20;99.90
18876;DHT22;9570;50.854;13.778;2023-05-10T05:07:04;11.20;99.90
18876;DHT22;9570;50.854;13.778;2023-05-10T05:09:30;11.20;99.90
18876;DHT22;9570;50.854;13.778;2023-05-10T05:11:57;11.20;99.90
18876;DHT22;9570;50.854;13.778;2023-05-10T05:14:22;11.20;99.90
18876;DHT22;9570;50.854;13.778;2023-05-10T05:16:50;11.20;99.90
18876;DHT22;9570;50.854;13.778;2023-05-10T05:19:16;11.30;99.90
18876;DHT22;9570;50.854;13.778;2023-05-10T05:21:41;11.30;99.90
18876;DHT22;9570;50.854;13.778;2023-05-10T05:24:07;11.40;99.90
18876;DHT22;9570;50.854;13.778;2023-05-10T05:26:33;11.40;99.90
18876;DHT22;9570;50.854;13.778;2023-05-10T05:28:58;11.40;99.90
18876;DHT22;9570;50.854;13.778;2023-05-10T05:31:24;11.50;99.90
18876;DHT22;9570;50.854;13.778;2023-05-10T05:33:49;11.60;99.90
18876;DHT22;9570;50.854;13.778;2023-05-10T05:36:15;11.60;99.90
18876;DHT22;9570;50.854;13.778;2023-05-10T05:38:40;11.60;99.90
18876;DHT22;9570;50.854;13.778;2023-05-10T05:41:06;11.70;99.90
18876;DHT22;9570;50.854;13.778;2023-05-10T05:43:31;11.60;99.90
18876;DHT22;9570;50.854;13.778;2023-05-10T05:45:57;11.70;99.90
18876;DHT22;9570;50.854;13.778;2023-05-10T05:48:23;11.80;99.90
18876;DHT22;9570;50.854;13.778;2023-05-10T05:50:48;11.90;99.90
18876;DHT22;9570;50.854;13.778;2023-05-10T05:53:14;11.90;99.90
18876;DHT22;9570;50.854;13.778;2023-05-10T05:55:39;12.20;99.90
18876;DHT22;9570;50.854;13.778;2023-05-10T05:58:05;12.60;99.90
18876;DHT22;9570;50.854;13.778;2023-05-10T06:00:30;12.80;99.90
18876;DHT22;9570;50.854;13.778;2023-05-10T06:02:56;13.10;99.90
18876;DHT22;9570;50.854;13.778;2023-05-10T06:05:22;13.50;99.90
18876;DHT22;9570;50.854;13.778;2023-05-10T06:07:47;13.80;99.90
18876;DHT22;9570;50.854;13.778;2023-05-10T06:10:13;13.90;99.90
18876;DHT22;9570;50.854;13.778;2023-05-10T06:12:38;14.30;99.90
18876;DHT22;9570;50.854;13.778;2023-05-10T06:15:04;14.50;99.90
18876;DHT22;9570;50.854;13.778;2023-05-10T06:17:30;15.00;99.90
18876;DHT22;9570;50.854;13.778;2023-05-10T06:19:55;15.10;99.90
18876;DHT22;9570;50.854;13.778;2023-05-10T06:22:21;15.30;99.90
18876;DHT22;9570;50.854;13.778;2023-05-10T06:24:49;15.20;99.90
18876;DHT22;9570;50.854;13.778;2023-05-10T06:27:15;14.90;99.90
18876;DHT22;9570;50.854;13.778;2023-05-10T06:29:40;14.60;99.90
18876;DHT22;9570;50.854;13.778;2023-05-10T06:32:06;15.00;99.90
18876;DHT22;9570;50.854;13.778;2023-05-10T06:34:32;15.50;99.90
18876;DHT22;9570;50.854;13.778;2023-05-10T06:36:57;15.90;99.90
18876;DHT22;9570;50.854;13.778;2023-05-10T06:39:23;15.90;99.90
18876;DHT22;9570;50.854;13.778;2023-05-10T06:41:48;16.50;99.90
18876;DHT22;9570;50.854;13.778;2023-05-10T06:44:13;16.60;99.90
18876;DHT22;9570;50.854;13.778;2023-05-10T06:46:39;16.50;99.90
18876;DHT22;9570;50.854;13.778;2023-05-10T06:49:05;16.20;99.90
18876;DHT22;9570;50.854;13.778;2023-05-10T06:51:30;15.80;99.90
18876;DHT22;9570;50.854;13.778;2023-05-10T06:53:56;16.20;99.90
18876;DHT22;9570;50.854;13.778;2023-05-10T06:56:21;16.50;99.90
18876;DHT22;9570;50.854;13.778;2023-05-10T06:58:47;16.60;99.90
18876;DHT22;9570;50.854;13.778;2023-05-10T07:01:13;16.60;99.90
18876;DHT22;9570;50.854;13.778;2023-05-10T07:03:38;16.80;99.90
18876;DHT22;9570;50.854;13.778;2023-05-10T07:06:04;16.80;99.90
18876;DHT22;9570;50.854;13.778;2023-05-10T07:08:34;17.00;99.90
18876;DHT22;9570;50.854;13.778;2023-05-10T07:11:03;17.10;99.90
18876;DHT22;9570;50.854;13.778;2023-05-10T07:13:30;17.50;99.90
18876;DHT22;9570;50.854;13.778;2023-05-10T07:15:56;17.70;99.90
18876;DHT22;9570;50.854;13.778;2023-05-10T07:18:22;18.10;99.90
18876;DHT22;9570;50.854;13.778;2023-05-10T07:20:47;18.40;99.90
18876;DHT22;9570;50.854;13.778;2023-05-10T07:23:13;18.10;99.90
18876;DHT22;9570;50.854;13.778;2023-05-10T07:25:38;18.10;99.90
18876;DHT22;9570;50.854;13.778;2023-05-10T07:28:05;18.30;99.90
18876;DHT22;9570;50.854;13.778;2023-05-10T07:30:30;18.30;99.90
18876;DHT22;9570;50.854;13.778;2023-05-10T07:32:56;18.70;99.90
18876;DHT22;9570;50.854;13.778;2023-05-10T07:35:21;18.90;99.90
18876;DHT22;9570;50.854;13.778;2023-05-10T07:37:47;19.10;99.90
18876;DHT22;9570;50.854;13.778;2023-05-10T07:40:12;19.50;99.90
18876;DHT22;9570;50.854;13.778;2023-05-10T07:42:38;19.80;99.90
18876;DHT22;9570;50.854;13.778;2023-05-10T07:45:04;19.60;99.90
18876;DHT22;9570;50.854;13.778;2023-05-10T07:47:29;19.20;99.90
18876;DHT22;9570;50.854;13.778;2023-05-10T07:49:55;19.10;99.90
18876;DHT22;9570;50.854;13.778;2023-05-10T07:52:20;19.30;99.90
18876;DHT22;9570;50.854;13.778;2023-05-10T07:54:46;19.20;99.90
18876;DHT22;9570;50.854;13.778;2023-05-10T07:57:11;18.80;99.90
18876;DHT22;9570;50.854;13.778;2023-05-10T07:59:39;18.80;99.90
18876;DHT22;9570;50.854;13.778;2023-05-10T08:02:05;19.40;99.90
18876;DHT22;9570;50.854;13.778;2023-05-10T08:04:31;19.80;99.90
18876;DHT22;9570;50.854;13.778;2023-05-10T08:06:56;19.60;99.90
18876;DHT22;9570;50.854;13.778;2023-05-10T08:09:22;20.00;99.90
18876;DHT22;9570;50.854;13.778;2023-05-10T08:11:49;20.40;99.90
18876;DHT22;9570;50.854;13.778;2023-05-10T08:14:14;20.20;99.90
18876;DHT22;9570;50.854;13.778;2023-05-10T08:16:40;20.30;99.90
18876;DHT22;9570;50.854;13.778;2023-05-10T08:19:05;20.30;99.90
18876;DHT22;9570;50.854;13.778;2023-05-10T08:21:31;20.80;99.90
18876;DHT22;9570;50.854;13.778;2023-05-10T08:23:56;21.40;99.90
18876;DHT22;9570;50.854;13.778;2023-05-10T08:26:22;21.80;99.90
18876;DHT22;9570;50.854;13.778;2023-05-10T08:28:48;21.50;99.90
18876;DHT22;9570;50.854;13.778;2023-05-10T08:31:14;21.80;99.90
18876;DHT22;9570;50.854;13.778;2023-05-10T08:33:39;21.60;99.90
18876;DHT22;9570;50.854;13.778;2023-05-10T08:36:05;21.20;99.90
18876;DHT22;9570;50.854;13.778;2023-05-10T08:38:30;21.10;99.90
18876;DHT22;9570;50.854;13.778;2023-05-10T08:40:56;20.80;99.90
18876;DHT22;9570;50.854;13.778;2023-05-10T08:43:23;20.30;99.90
18876;DHT22;9570;50.854;13.778;2023-05-10T08:45:51;20.50;99.90
18876;DHT22;9570;50.854;13.778;2023-05-10T08:48:18;20.80;99.90
18876;DHT22;9570;50.854;13.778;2023-05-10T08:50:44;20.70;99.90
18876;DHT22;9570;50.854;13.778;2023-05-10T08:53:12;20.20;99.90
18876;DHT22;9570;50.854;13.778;2023-05-10T08:55:38;20.20;99.90
18876;DHT22;9570;50.854;13.778;2023-05-10T08:58:06;20.10;99.90
18876;DHT22;9570;50.854;13.778;2023-05-10T09:00:32;19.50;99.90
18876;DHT22;9570;50.854;13.778;2023-05-10T09:02:58;19.70;99.90
18876;DHT22;9570;50.854;13.778;2023-05-10T09:05:24;19.50;99.90
18876;DHT22;9570;50.854;13.778;2023-05-10T09:07:49;19.60;99.90
18876;DHT22;9570;50.854;13.778;2023-05-10T09:10:15;19.70;99.90
18876;DHT22;9570;50.854;13.778;2023-05-10T09:12:41;19.70;99.90
18876;DHT22;9570;50.854;13.778;2023-05-10T09:15:07;20.20;99.90
18876;DHT22;9570;50.854;13.778;2023-05-10T09:17:34;20.60;99.90
18876;DHT22;9570;50.854;13.778;2023-05-10T09:20:01;21.00;99.90
18876;DHT22;9570;50.854;13.778;2023-05-10T09:22:27;21.40;99.90
18876;DHT22;9570;50.854;13.778;2023-05-10T09:25:07;21.20;99.90
18876;DHT22;9570;50.854;13.778;2023-05-10T09:27:34;20.70;99.90
18876;DHT22;9570;50.854;13.778;2023-05-10T09:29:59;20.30;99.90
18876;DHT22;9570;50.854;13.778;2023-05-10T09:32:38;20.40;99.90
18876;DHT22;9570;50.854;13.778;2023-05-10T09:35:11;20.80;99.90
18876;DHT22;9570;50.854;13.778;2023-05-10T09:37:39;20.70;99.90
18876;DHT22;9570;50.854;13.778;2023-05-10T09:40:16;20.40;99.90
18876;DHT22;9570;50.854;13.778;2023-05-10T09:42:50;20.50;99.90
18876;DHT22;9570;50.854;13.778;2023-05-10T09:45:16;20.90;99.90
18876;DHT22;9570;50.854;13.778;2023-05-10T09:47:41;21.00;99.90
18876;DHT22;9570;50.854;13.778;2023-05-10T09:50:07;20.40;99.90
18876;DHT22;9570;50.854;13.778;2023-05-10T09:52:53;19.90;99.90
18876;DHT22;9570;50.854;13.778;2023-05-10T09:55:22;20.10;99.90
18876;DHT22;9570;50.854;13.778;2023-05-10T09:57:49;20.30;99.90
18876;DHT22;9570;50.854;13.778;2023-05-10T10:00:18;20.70;99.90
18876;DHT22;9570;50.854;13.778;2023-05-10T10:02:45;21.00;99.90
18876;DHT22;9570;50.854;13.778;2023-05-10T10:05:11;21.10;99.90
18876;DHT22;9570;50.854;13.778;2023-05-10T10:07:37;21.10;99.90
18876;DHT22;9570;50.854;13.778;2023-05-10T10:10:03;21.40;99.90
18876;DHT22;9570;50.854;13.778;2023-05-10T10:12:30;21.80;99.90
18876;DHT22;9570;50.854;13.778;2023-05-10T10:14:56;21.90;99.90
18876;DHT22;9570;50.854;13.778;2023-05-10T10:17:24;21.50;99.90
18876;DHT22;9570;50.854;13.778;2023-05-10T10:19:52;21.50;99.90
18876;DHT22;9570;50.854;13.778;2023-05-10T10:22:18;21.10;99.90
18876;DHT22;9570;50.854;13.778;2023-05-10T10:24:43;21.00;99.90
18876;DHT22;9570;50.854;13.778;2023-05-10T10:27:19;20.50;99.90
18876;DHT22;9570;50.854;13.778;2023-05-10T10:29:52;20.10;99.90
18876;DHT22;9570;50.854;13.778;2023-05-10T10:35:20;20.40;99.90
18876;DHT22;9570;50.854;13.778;2023-05-10T10:37:47;20.40;99.90
18876;DHT22;9570;50.854;13.778;2023-05-10T10:40:29;20.20;99.90
18876;DHT22;9570;50.854;13.778;2023-05-10T10:42:56;20.30;99.90
18876;DHT22;9570;50.854;13.778;2023-05-10T10:45:23;19.90;99.90
18876;DHT22;9570;50.854;13.778;2023-05-10T10:48:18;19.70;99.90
18876;DHT22;9570;50.854;13.778;2023-05-10T10:50:45;19.80;99.90
18876;DHT22;9570;50.854;13.778;2023-05-10T10:53:13;19.70;99.90
18876;DHT22;9570;50.854;13.778;2023-05-10T10:55:48;19.70;99.90
18876;DHT22;9570;50.854;13.778;2023-05-10T10:58:30;19.70;99.90
18876;DHT22;9570;50.854;13.778;2023-05-10T11:01:16;19.70;99.90
18876;DHT22;9570;50.854;13.778;2023-05-10T11:08:57;19.30;99.90
18876;DHT22;9570;50.854;13.778;2023-05-10T11:11:22;19.30;99.90
18876;DHT22;9570;50.854;13.778;2023-05-10T11:13:48;19.10;99.90
18876;DHT22;9570;50.854;13.778;2023-05-10T11:16:24;19.10;99.90
18876;DHT22;9570;50.854;13.778;2023-05-10T11:18:54;19.20;99.90
18876;DHT22;9570;50.854;13.778;2023-05-10T11:21:22;19.20;99.90
18876;DHT22;9570;50.854;13.778;2023-05-10T11:23:48;19.20;99.90
18876;DHT22;9570;50.854;13.778;2023-05-10T11:26:14;19.30;99.90
18876;DHT22;9570;50.854;13.778;2023-05-10T11:28:44;19.20;99.90
18876;DHT22;9570;50.854;13.778;2023-05-10T11:31:10;19.40;99.90
18876;DHT22;9570;50.854;13.778;2023-05-10T11:33:45;19.60;99.90
18876;DHT22;9570;50.854;13.778;2023-05-10T11:36:12;19.40;99.90
18876;DHT22;9570;50.854;13.778;2023-05-10T11:38:37;19.30;99.90
18876;DHT22;9570;50.854;13.778;2023-05-10T11:41:03;19.30;99.90
18876;DHT22;9570;50.854;13.778;2023-05-10T11:43:28;19.20;99.90
18876;DHT22;9570;50.854;13.778;2023-05-10T11:45:56;19.20;99.90
18876;DHT22;9570;50.854;13.778;2023-05-10T11:48:21;19.30;99.90
18876;DHT22;9570;50.854;13.778;2023-05-10T11:50:49;19.40;99.90
18876;DHT22;9570;50.854;13.778;2023-05-10T11:53:15;19.40;99.90
18876;DHT22;9570;50.854;13.778;2023-05-10T11:55:40;19.40;99.90
18876;DHT22;9570;50.854;13.778;2023-05-10T11:58:06;19.20;99.90
18876;DHT22;9570;50.854;13.778;2023-05-10T12:00:31;19.00;99.90
18876;DHT22;9570;50.854;13.778;2023-05-10T12:02:57;19.10;99.90
18876;DHT22;9570;50.854;13.778;2023-05-10T12:05:23;19.20;99.90
18876;DHT22;9570;50.854;13.778;2023-05-10T12:07:49;19.30;99.90
18876;DHT22;9570;50.854;13.778;2023-05-10T12:10:14;19.20;99.90
18876;DHT22;9570;50.854;13.778;2023-05-10T12:12:45;19.30;99.90
18876;DHT22;9570;50.854;13.778;2023-05-10T12:15:22;19.30;99.90
18876;DHT22;9570;50.854;13.778;2023-05-10T12:17:49;19.00;99.90
18876;DHT22;9570;50.854;13.778;2023-05-10T12:20:18;19.20;99.90
18876;DHT22;9570;50.854;13.778;2023-05-10T12:22:52;19.20;99.90
18876;DHT22;9570;50.854;13.778;2023-05-10T12:25:19;19.20;99.90
18876;DHT22;9570;50.854;13.778;2023-05-10T12:27:56;19.10;99.90
18876;DHT22;9570;50.854;13.778;2023-05-10T12:30:30;19.00;99.90
18876;DHT22;9570;50.854;13.778;2023-05-10T12:33:01;18.80;99.90
18876;DHT22;9570;50.854;13.778;2023-05-10T12:35:29;18.80;99.90
18876;DHT22;9570;50.854;13.778;2023-05-10T12:37:55;18.70;99.90
18876;DHT22;9570;50.854;13.778;2023-05-10T12:40:20;18.70;99.90
18876;DHT22;9570;50.854;13.778;2023-05-10T12:42:45;18.70;99.90
18876;DHT22;9570;50.854;13.778;2023-05-10T12:45:12;18.80;99.90
18876;DHT22;9570;50.854;13.778;2023-05-10T12:47:37;19.00;99.90
18876;DHT22;9570;50.854;13.778;2023-05-10T12:50:03;19.10;99.90
18876;DHT22;9570;50.854;13.778;2023-05-10T12:52:30;19.20;99.90
18876;DHT22;9570;50.854;13.778;2023-05-10T12:54:57;19.20;99.90
18876;DHT22;9570;50.854;13.778;2023-05-10T12:57:23;19.20;99.90
18876;DHT22;9570;50.854;13.778;2023-05-10T12:59:48;19.20;99.90
18876;DHT22;9570;50.854;13.778;2023-05-10T13:02:14;19.10;99.90
18876;DHT22;9570;50.854;13.778;2023-05-10T13:04:40;19.00;99.90
18876;DHT22;9570;50.854;13.778;2023-05-10T13:07:07;19.10;99.90
18876;DHT22;9570;50.854;13.778;2023-05-10T13:09:32;19.10;99.90
18876;DHT22;9570;50.854;13.778;2023-05-10T13:11:58;19.10;99.90
18876;DHT22;9570;50.854;13.778;2023-05-10T13:14:24;19.10;99.90
18876;DHT22;9570;50.854;13.778;2023-05-10T13:16:50;19.10;99.90
18876;DHT22;9570;50.854;13.778;2023-05-10T13:19:16;19.30;99.90
18876;DHT22;9570;50.854;13.778;2023-05-10T13:21:43;19.50;99.90
18876;DHT22;9570;50.854;13.778;2023-05-10T13:24:10;19.50;99.90
18876;DHT22;9570;50.854;13.778;2023-05-10T13:26:36;19.40;99.90
18876;DHT22;9570;50.854;13.778;2023-05-10T13:29:02;19.40;99.90
18876;DHT22;9570;50.854;13.778;2023-05-10T13:31:27;19.40;99.90
18876;DHT22;9570;50.854;13.778;2023-05-10T13:33:53;19.40;99.90
18876;DHT22;9570;50.854;13.778;2023-05-10T13:36:18;19.50;99.90
18876;DHT22;9570;50.854;13.778;2023-05-10T13:38:44;19.60;99.90
18876;DHT22;9570;50.854;13.778;2023-05-10T13:41:10;19.60;99.90
18876;DHT22;9570;50.854;13.778;2023-05-10T13:43:35;19.70;99.90
18876;DHT22;9570;50.854;13.778;2023-05-10T13:46:01;19.80;99.90
18876;DHT22;9570;50.854;13.778;2023-05-10T13:48:28;19.90;99.90
18876;DHT22;9570;50.854;13.778;2023-05-10T13:50:53;19.90;99.90
18876;DHT22;9570;50.854;13.778;2023-05-10T13:53:19;19.80;99.90
18876;DHT22;9570;50.854;13.778;2023-05-10T13:55:44;19.80;99.90
18876;DHT22;9570;50.854;13.778;2023-05-10T13:58:10;19.70;99.90
18876;DHT22;9570;50.854;13.778;2023-05-10T14:00:36;19.70;99.90
18876;DHT22;9570;50.854;13.778;2023-05-10T14:03:01;19.70;99.90
18876;DHT22;9570;50.854;13.778;2023-05-10T14:05:27;19.70;99.90
18876;DHT22;9570;50.854;13.778;2023-05-10T14:07:52;19.60;99.90
18876;DHT22;9570;50.854;13.778;2023-05-10T14:10:19;19.60;99.90
18876;DHT22;9570;50.854;13.778;2023-05-10T14:12:44;19.60;99.90
18876;DHT22;9570;50.854;13.778;2023-05-10T14:15:10;19.60;99.90
18876;DHT22;9570;50.854;13.778;2023-05-10T14:17:36;19.70;99.90
18876;DHT22;9570;50.854;13.778;2023-05-10T14:20:02;19.70;99.90
18876;DHT22;9570;50.854;13.778;2023-05-10T14:22:29;19.80;99.90
18876;DHT22;9570;50.854;13.778;2023-05-10T14:24:54;19.70;99.90
18876;DHT22;9570;50.854;13.778;2023-05-10T14:27:20;19.70;99.90
18876;DHT22;9570;50.854;13.778;2023-05-10T14:29:45;19.80;99.90
18876;DHT22;9570;50.854;13.778;2023-05-10T14:32:11;19.80;99.90
18876;DHT22;9570;50.854;13.778;2023-05-10T14:34:36;19.80;99.90
18876;DHT22;9570;50.854;13.778;2023-05-10T14:37:02;19.80;99.90
18876;DHT22;9570;50.854;13.778;2023-05-10T14:39:27;20.00;99.90
18876;DHT22;9570;50.854;13.778;2023-05-10T14:41:55;20.10;99.90
18876;DHT22;9570;50.854;13.778;2023-05-10T14:44:20;20.10;99.90
18876;DHT22;9570;50.854;13.778;2023-05-10T14:46:45;20.10;99.90
18876;DHT22;9570;50.854;13.778;2023-05-10T14:49:11;20.00;99.90
18876;DHT22;9570;50.854;13.778;2023-05-10T14:51:37;19.90;99.90
18876;DHT22;9570;50.854;13.778;2023-05-10T14:54:02;19.70;99.90
18876;DHT22;9570;50.854;13.778;2023-05-10T14:56:28;19.70;99.90
18876;DHT22;9570;50.854;13.778;2023-05-10T14:58:53;19.60;99.90
18876;DHT22;9570;50.854;13.778;2023-05-10T15:01:19;19.50;99.90
18876;DHT22;9570;50.854;13.778;2023-05-10T15:03:44;19.50;99.90
18876;DHT22;9570;50.854;13.778;2023-05-10T15:06:10;19.70;99.90
18876;DHT22;9570;50.854;13.778;2023-05-10T15:08:35;19.80;99.90
18876;DHT22;9570;50.854;13.778;2023-05-10T15:11:01;19.80;99.90
18876;DHT22;9570;50.854;13.778;2023-05-10T15:13:26;19.80;99.90
18876;DHT22;9570;50.854;13.778;2023-05-10T15:15:52;19.80;99.90
18876;DHT22;9570;50.854;13.778;2023-05-10T15:18:17;19.80;99.90
18876;DHT22;9570;50.854;13.778;2023-05-10T15:20:43;19.80;99.90
18876;DHT22;9570;50.854;13.778;2023-05-10T15:23:08;19.80;99.90
18876;DHT22;9570;50.854;13.778;2023-05-10T15:25:34;19.70;99.90
18876;DHT22;9570;50.854;13.778;2023-05-10T15:28:01;19.80;99.90
18876;DHT22;9570;50.854;13.778;2023-05-10T15:30:27;19.80;99.90
18876;DHT22;9570;50.854;13.778;2023-05-10T15:32:53;19.80;99.90
18876;DHT22;9570;50.854;13.778;2023-05-10T15:35:18;19.80;99.90
18876;DHT22;9570;50.854;13.778;2023-05-10T15:37:44;19.80;99.90
18876;DHT22;9570;50.854;13.778;2023-05-10T15:40:10;19.80;99.90
18876;DHT22;9570;50.854;13.778;2023-05-10T15:42:35;19.80;99.90
18876;DHT22;9570;50.854;13.778;2023-05-10T15:45:01;19.70;99.90
18876;DHT22;9570;50.854;13.778;2023-05-10T15:47:26;19.60;99.90
18876;DHT22;9570;50.854;13.778;2023-05-10T15:49:53;19.60;99.90